リヤド の空港の天気 - METARとTAF

キング・ハーリド国際空港(リヤド) ( OERK / RUH ) - サウジアラビア リヤド
飛行場実況気象(Metar)
観測時間06/18 10:00 AST (06/18 07:00 UTC)
風向・風速北 6m/s
視程5000m
天気現象風塵
なし
気温39℃
湿度10%
気圧1009hPa
METAROERK 180700Z 36011KT 5000 DU NSC 39/02 Q1009 NOSIG
過去の天気等 Google飛行場航空写真 Wunderground天気予報

過去48時間のMETAR

飛行場予報(TAF)
発表時間: 6/18 08:00 AST (6/18 05:00 UTC)
予報対象時間: 18日9時 AST ~ 19日15時 AST
風向・風速北 6m/s 瞬間風速 12m/s
視程5000m
天気現象風塵 高い風塵
なし
18日9時 AST ~ 18日21時 AST に一時的に
視程1000m
天気現象高い砂塵
18日9時 AST ~ 18日15時 AST に 確率 30% で一時的に
視程500m
TAF OERK 180500Z 1806/1912 36012G24KT 5000 DU BLDU SKC
TEMPO 1806/1818 1000 BLSA
PROB30 TEMPO 1806/1812 0500